Time;durP1;ratioP1;P1;durP2;ratioP2;P2;SDS_P1;SDS_P2;PMS_P1;PMS_P2;Temp;Humidity;BMP_temperature;BMP_pressure;BME280_temperature;BME280_humidity;BME280_pressure;Samples;Min_cycle;Max_cycle;Signal;HPM_P1;HPM_P2
2023/10/06 00:01:31;;;;;;;18.25;10.68;;;13.80;99.90;;;;;;4921134;29;21033;-95
2023/10/06 00:03:59;;;;;;;18.55;11.60;;;13.80;99.90;;;;;;4920594;29;20221;-90
2023/10/06 00:06:28;;;;;;;15.95;11.50;;;13.80;99.90;;;;;;4920257;29;20186;-93
2023/10/06 00:08:57;;;;;;;16.92;11.15;;;13.80;99.90;;;;;;4920736;29;20608;-95
2023/10/06 00:11:40;;;;;;;15.48;10.65;;;13.80;99.90;;;;;;4920741;29;20186;-95
2023/10/06 00:14:08;;;;;;;14.68;11.35;;;13.80;99.90;;;;;;4920400;29;20224;-93
2023/10/06 00:16:41;;;;;;;16.65;11.82;;;13.80;99.90;;;;;;4920713;29;20566;-92
2023/10/06 00:19:27;;;;;;;15.68;11.23;;;13.80;99.90;;;;;;4920768;29;20253;-93
2023/10/06 00:24:50;;;;;;;17.35;11.68;;;13.80;99.90;;;;;;4928828;29;20190;-91
2023/10/06 00:27:24;;;;;;;19.45;12.13;;;13.80;99.90;;;;;;4920525;29;20182;-91
2023/10/06 00:29:56;;;;;;;21.27;11.85;;;13.80;99.90;;;;;;4937537;29;20185;-92
2023/10/06 00:32:25;;;;;;;19.10;11.85;;;13.70;99.90;;;;;;4920461;29;20213;-91
2023/10/06 00:34:52;;;;;;;20.50;12.10;;;13.70;99.90;;;;;;4937236;29;20265;-95
2023/10/06 00:37:24;;;;;;;24.17;13.35;;;13.70;99.90;;;;;;4937382;29;20174;-91
2023/10/06 00:39:57;;;;;;;18.70;13.90;;;13.70;99.90;;;;;;4920706;29;20180;-91
2023/10/06 00:42:23;;;;;;;23.15;13.50;;;13.60;99.90;;;;;;4920560;29;20213;-88
2023/10/06 00:44:49;;;;;;;18.55;12.43;;;13.60;99.90;;;;;;4920290;29;20182;-91
2023/10/06 00:47:17;;;;;;;23.63;12.38;;;13.60;99.90;;;;;;4923344;29;20217;-94
2023/10/06 00:49:43;;;;;;;19.17;12.32;;;13.50;99.90;;;;;;4923561;29;20167;-92
2023/10/06 00:52:12;;;;;;;20.33;13.35;;;13.50;99.90;;;;;;4923394;29;20240;-92
2023/10/06 00:54:42;;;;;;;19.02;11.85;;;13.50;99.90;;;;;;4940579;29;20185;-92
2023/10/06 00:57:12;;;;;;;20.50;12.15;;;13.50;99.90;;;;;;4923226;29;20170;-88
2023/10/06 00:59:38;;;;;;;19.65;10.63;;;13.40;99.90;;;;;;4923117;29;20190;-86
2023/10/06 01:02:08;;;;;;;20.20;10.55;;;13.40;99.90;;;;;;4923009;29;20232;-85
2023/10/06 01:04:42;;;;;;;25.38;11.65;;;13.40;99.90;;;;;;4922906;29;20257;-88
2023/10/06 01:07:16;;;;;;;16.80;11.35;;;13.30;99.90;;;;;;4922940;29;20205;-85
2023/10/06 01:10:07;;;;;;;16.23;10.82;;;13.30;99.90;;;;;;4922882;29;20216;-89
2023/10/06 01:12:34;;;;;;;20.65;11.57;;;13.30;99.90;;;;;;4922604;29;20526;-85
2023/10/06 01:15:16;;;;;;;16.55;10.82;;;13.30;99.90;;;;;;4922763;29;20189;-88
2023/10/06 01:17:56;;;;;;;17.75;11.45;;;13.20;99.90;;;;;;4922635;29;20178;-86
2023/10/06 01:20:41;;;;;;;18.05;10.93;;;13.20;99.90;;;;;;4922439;29;20186;-89
2023/10/06 01:26:03;;;;;;;14.20;10.68;;;13.20;99.90;;;;;;4931093;29;20197;-87
2023/10/06 01:28:34;;;;;;;17.92;11.13;;;13.20;99.90;;;;;;4939528;29;20613;-86
2023/10/06 01:31:02;;;;;;;16.55;10.32;;;13.10;99.90;;;;;;4922670;29;20660;-89
2023/10/06 01:33:27;;;;;;;16.75;10.52;;;13.10;99.90;;;;;;4922144;29;20260;-87
2023/10/06 01:35:55;;;;;;;16.20;10.20;;;13.10;99.90;;;;;;4922072;29;20185;-86
2023/10/06 01:38:23;;;;;;;18.45;10.15;;;13.10;99.90;;;;;;4922246;29;20181;-91
2023/10/06 01:40:52;;;;;;;16.65;9.65;;;13.10;99.90;;;;;;4922056;29;20233;-86
2023/10/06 01:43:23;;;;;;;15.98;9.80;;;13.10;99.90;;;;;;4921867;29;20202;-85
2023/10/06 01:45:50;;;;;;;15.93;9.32;;;13.10;99.90;;;;;;4921998;29;20189;-86
2023/10/06 01:48:22;;;;;;;15.60;9.27;;;13.00;99.90;;;;;;4938933;29;20188;-86
2023/10/06 01:50:49;;;;;;;16.08;8.25;;;13.00;99.90;;;;;;4938892;29;20589;-85
2023/10/06 01:53:21;;;;;;;13.73;8.45;;;13.10;99.90;;;;;;4921754;29;20249;-88
2023/10/06 01:55:56;;;;;;;18.33;9.23;;;13.00;99.90;;;;;;4921933;29;20264;-86
2023/10/06 01:58:22;;;;;;;16.15;9.00;;;13.00;99.90;;;;;;4921581;29;20201;-85
2023/10/06 02:00:48;;;;;;;17.92;8.77;;;13.00;99.90;;;;;;4921755;29;20186;-86
2023/10/06 02:03:17;;;;;;;14.38;8.13;;;13.00;99.90;;;;;;4921700;29;20192;-85
2023/10/06 02:05:43;;;;;;;15.85;8.43;;;13.00;99.90;;;;;;4921355;29;20233;-86
2023/10/06 02:08:09;;;;;;;14.43;8.50;;;13.00;99.90;;;;;;4921861;29;20198;-84
2023/10/06 02:10:40;;;;;;;15.63;7.97;;;13.00;99.90;;;;;;4921941;29;20186;-86
2023/10/06 02:13:06;;;;;;;13.40;8.30;;;13.00;99.90;;;;;;4921627;29;20226;-92
2023/10/06 02:15:32;;;;;;;16.75;7.78;;;13.00;99.90;;;;;;4921446;29;20296;-91
2023/10/06 02:17:59;;;;;;;12.25;7.57;;;13.00;99.90;;;;;;4921620;29;20193;-90
2023/10/06 02:23:02;;;;;;;15.10;7.80;;;12.90;99.90;;;;;;4939085;29;20305;-94
2023/10/06 02:25:29;;;;;;;12.70;7.68;;;12.90;99.90;;;;;;4921703;29;20181;-92
2023/10/06 02:27:59;;;;;;;11.68;7.28;;;12.90;99.90;;;;;;4921723;29;20190;-91
2023/10/06 02:30:37;;;;;;;16.13;7.50;;;12.90;99.90;;;;;;4921754;29;20186;-93
2023/10/06 02:33:07;;;;;;;14.70;7.68;;;12.90;99.90;;;;;;4921437;29;20592;-91
2023/10/06 02:35:43;;;;;;;13.30;7.10;;;12.80;99.90;;;;;;4921540;29;20185;-95
2023/10/06 02:38:12;;;;;;;12.35;7.18;;;12.80;99.90;;;;;;4921715;29;20174;-92
2023/10/06 02:40:45;;;;;;;13.23;7.18;;;12.80;99.90;;;;;;4921954;29;20264;-90
2023/10/06 02:43:20;;;;;;;16.45;7.22;;;12.80;99.90;;;;;;4921712;29;20189;-92
2023/10/06 02:45:45;;;;;;;9.95;6.57;;;12.70;99.90;;;;;;4921763;29;20181;-93
2023/10/06 02:48:17;;;;;;;13.18;7.68;;;12.70;99.90;;;;;;4921759;29;20564;-91
2023/10/06 02:50:46;;;;;;;13.80;7.05;;;12.70;99.90;;;;;;4921241;29;20631;-89
2023/10/06 02:53:13;;;;;;;11.68;7.15;;;12.70;99.90;;;;;;4921154;29;20222;-92
2023/10/06 02:55:43;;;;;;;12.73;6.95;;;12.60;99.90;;;;;;4921502;29;20543;-88
2023/10/06 02:58:30;;;;;;;10.80;6.97;;;12.50;99.90;;;;;;4921322;29;20269;-90
2023/10/06 03:00:59;;;;;;;13.27;6.25;;;12.50;99.90;;;;;;4921464;29;20545;-93
2023/10/06 03:03:29;;;;;;;11.05;6.60;;;12.50;99.90;;;;;;4921135;29;20229;-90
2023/10/06 03:05:56;;;;;;;12.15;7.10;;;12.50;99.90;;;;;;4920862;29;20233;-94
2023/10/06 03:08:30;;;;;;;11.75;6.75;;;12.50;99.90;;;;;;4937642;29;20178;-90
2023/10/06 03:10:55;;;;;;;10.57;6.45;;;12.40;99.90;;;;;;4921395;29;20181;-91
2023/10/06 03:15:57;;;;;;;15.40;6.60;;;12.40;99.90;;;;;;4938401;29;20165;-90
2023/10/06 03:18:28;;;;;;;13.93;6.93;;;12.40;99.90;;;;;;4921138;29;20217;-90
2023/10/06 03:21:01;;;;;;;10.43;5.72;;;12.40;99.90;;;;;;4920979;29;20184;-90
2023/10/06 03:23:29;;;;;;;14.60;6.22;;;12.40;99.90;;;;;;4921074;29;20605;-90
2023/10/06 03:25:58;;;;;;;12.65;6.10;;;12.40;99.90;;;;;;4921040;29;20186;-92
2023/10/06 03:28:37;;;;;;;14.95;5.80;;;12.40;99.90;;;;;;4921128;29;20221;-94
2023/10/06 03:33:44;;;;;;;11.90;5.75;;;12.30;99.90;;;;;;4937945;29;20221;-90
2023/10/06 03:36:21;;;;;;;12.15;5.43;;;12.30;99.90;;;;;;4920638;29;20206;-90
2023/10/06 03:38:57;;;;;;;13.70;5.53;;;12.30;99.90;;;;;;4920874;29;20178;-90
2023/10/06 03:41:31;;;;;;;12.52;5.32;;;12.30;99.90;;;;;;4921043;29;20237;-91
2023/10/06 03:44:00;;;;;;;14.05;5.30;;;12.30;99.90;;;;;;4920848;29;20220;-89
2023/10/06 03:46:37;;;;;;;9.48;4.95;;;12.30;99.90;;;;;;4920340;29;20185;-89
2023/10/06 03:49:07;;;;;;;12.85;5.05;;;12.30;99.90;;;;;;4920963;29;20245;-89
2023/10/06 03:51:38;;;;;;;11.90;4.35;;;12.30;99.90;;;;;;4920582;29;20189;-92
2023/10/06 03:54:04;;;;;;;6.68;4.10;;;12.30;99.90;;;;;;4920569;29;20220;-91
2023/10/06 03:56:31;;;;;;;8.93;4.80;;;12.30;99.90;;;;;;4920932;29;20244;-92
2023/10/06 03:58:59;;;;;;;9.57;4.43;;;12.30;99.90;;;;;;4920732;29;20216;-89
2023/10/06 04:01:26;;;;;;;6.22;4.57;;;12.20;99.90;;;;;;4920596;29;20188;-92
2023/10/06 04:03:58;;;;;;;7.45;4.30;;;12.30;99.90;;;;;;4923065;28;20186;-90
2023/10/06 04:06:27;;;;;;;10.23;4.35;;;12.30;99.90;;;;;;4939370;29;20196;-91
2023/10/06 04:08:56;;;;;;;22.70;4.50;;;12.30;99.90;;;;;;4939610;29;20192;-92
2023/10/06 04:11:22;;;;;;;9.88;4.95;;;12.30;99.90;;;;;;4939762;29;20186;-90
2023/10/06 04:13:48;;;;;;;11.38;4.78;;;12.30;99.90;;;;;;4956587;29;20216;-88
2023/10/06 04:16:14;;;;;;;9.57;4.15;;;12.30;99.90;;;;;;4939535;29;20764;-89
2023/10/06 04:18:41;;;;;;;12.38;5.10;;;12.20;99.90;;;;;;4939809;29;20208;-93
2023/10/06 04:21:11;;;;;;;13.15;4.82;;;12.30;99.90;;;;;;4941259;29;20173;-90
2023/10/06 04:23:46;;;;;;;12.10;4.63;;;12.20;99.90;;;;;;4943302;29;20712;-93
2023/10/06 04:26:16;;;;;;;7.55;4.20;;;12.20;99.90;;;;;;4943186;29;20268;-88
2023/10/06 04:28:47;;;;;;;13.60;5.05;;;12.30;99.90;;;;;;4943043;29;20177;-92
2023/10/06 04:31:15;;;;;;;12.60;4.97;;;12.30;99.90;;;;;;4943194;29;20173;-92
2023/10/06 04:33:40;;;;;;;14.93;5.32;;;12.20;99.90;;;;;;4942831;29;20243;-93
2023/10/06 04:36:10;;;;;;;12.48;4.30;;;12.30;99.90;;;;;;4942835;29;20612;-94
2023/10/06 04:38:40;;;;;;;16.05;5.10;;;12.30;99.90;;;;;;4942997;29;20184;-93
2023/10/06 04:41:08;;;;;;;12.23;4.60;;;12.30;99.90;;;;;;4959913;29;20665;-90
2023/10/06 04:43:37;;;;;;;10.82;4.32;;;12.30;99.90;;;;;;4942836;29;20185;-92
2023/10/06 04:46:08;;;;;;;8.13;4.32;;;12.30;99.90;;;;;;4942881;29;20636;-88
2023/10/06 04:48:40;;;;;;;9.20;4.10;;;12.30;99.90;;;;;;4960351;29;20180;-87
2023/10/06 04:51:09;;;;;;;12.57;4.32;;;12.30;99.90;;;;;;4942618;29;20170;-93
2023/10/06 04:53:36;;;;;;;8.18;4.22;;;12.40;99.90;;;;;;4942594;29;20213;-89
2023/10/06 04:56:08;;;;;;;11.57;4.03;;;12.40;99.90;;;;;;4959646;29;20173;-89
2023/10/06 04:58:39;;;;;;;9.25;4.70;;;12.40;99.90;;;;;;4942880;29;20185;-91
2023/10/06 05:01:07;;;;;;;11.68;4.50;;;12.40;99.90;;;;;;4942760;29;20557;-93
2023/10/06 05:03:45;;;;;;;9.25;4.38;;;12.40;99.90;;;;;;4942450;29;20208;-92
2023/10/06 05:06:16;;;;;;;10.38;4.47;;;12.40;99.90;;;;;;4942277;29;20237;-90
2023/10/06 05:08:47;;;;;;;9.35;4.63;;;12.40;99.90;;;;;;4942594;29;20240;-90
2023/10/06 05:11:23;;;;;;;11.77;3.92;;;12.40;99.90;;;;;;4942588;29;20178;-94
2023/10/06 05:13:57;;;;;;;10.93;3.80;;;12.40;99.90;;;;;;4942336;29;20303;-91
2023/10/06 05:16:27;;;;;;;12.45;4.22;;;12.40;99.90;;;;;;4959459;29;20251;-94
2023/10/06 05:18:58;;;;;;;12.90;3.58;;;12.40;99.90;;;;;;4958210;29;20181;-93
2023/10/06 05:21:23;;;;;;;9.98;4.00;;;12.40;99.90;;;;;;4958086;29;20176;-92
2023/10/06 05:23:49;;;;;;;10.00;4.25;;;12.40;99.90;;;;;;4942089;29;20182;-90
2023/10/06 05:26:15;;;;;;;11.38;5.25;;;12.40;99.90;;;;;;4942214;29;20280;-91
2023/10/06 05:28:42;;;;;;;7.60;4.07;;;12.40;99.90;;;;;;4942093;29;20185;-89
2023/10/06 05:31:08;;;;;;;9.52;4.05;;;12.40;99.90;;;;;;4958970;28;20212;-90
2023/10/06 05:33:34;;;;;;;11.38;4.07;;;12.40;99.90;;;;;;4942045;29;20252;-93
2023/10/06 05:36:09;;;;;;;7.50;4.28;;;12.40;99.90;;;;;;4941914;29;20208;-89
2023/10/06 05:38:45;;;;;;;10.25;3.78;;;12.40;99.90;;;;;;4941989;29;20192;-91
2023/10/06 05:41:15;;;;;;;9.25;3.90;;;12.40;99.90;;;;;;4942082;29;20204;-92
2023/10/06 05:43:41;;;;;;;9.70;4.20;;;12.40;99.90;;;;;;4941947;29;20208;-94
2023/10/06 05:46:07;;;;;;;9.52;3.90;;;12.40;99.90;;;;;;4941889;29;20185;-91
2023/10/06 05:48:36;;;;;;;8.32;3.92;;;12.40;99.90;;;;;;4941812;29;20624;-90
2023/10/06 05:51:05;;;;;;;9.50;3.70;;;12.50;99.90;;;;;;4941819;29;20173;-92
2023/10/06 05:53:38;;;;;;;8.82;3.72;;;12.50;99.90;;;;;;4941573;29;20223;-89
2023/10/06 05:56:07;;;;;;;9.50;4.05;;;12.50;99.90;;;;;;4941956;29;20184;-93
2023/10/06 05:58:37;;;;;;;7.55;3.47;;;12.50;99.90;;;;;;4941721;29;20580;-90
2023/10/06 06:01:06;;;;;;;9.82;3.70;;;12.50;99.90;;;;;;4941767;29;20170;-94
2023/10/06 06:03:32;;;;;;;10.07;3.97;;;12.50;99.90;;;;;;4941386;29;20182;-87
2023/10/06 06:06:07;;;;;;;10.77;3.58;;;12.50;99.90;;;;;;4940402;29;20193;-86
2023/10/06 06:08:39;;;;;;;12.20;3.95;;;12.60;99.90;;;;;;4940463;29;20173;-88
2023/10/06 06:11:06;;;;;;;9.52;3.40;;;12.60;99.90;;;;;;4940927;29;20223;-87
2023/10/06 06:13:33;;;;;;;11.38;3.60;;;12.60;99.90;;;;;;4940540;29;20648;-88
2023/10/06 06:16:00;;;;;;;8.93;3.40;;;12.60;99.90;;;;;;4940445;29;20229;-85
2023/10/06 06:18:27;;;;;;;7.05;3.67;;;12.60;99.90;;;;;;4940440;29;20185;-87
2023/10/06 06:20:55;;;;;;;7.82;3.00;;;12.60;99.90;;;;;;4940315;29;20272;-85
2023/10/06 06:23:20;;;;;;;8.70;3.38;;;12.60;99.90;;;;;;4940211;29;20177;-87
2023/10/06 06:25:46;;;;;;;13.20;3.88;;;12.70;99.90;;;;;;4940511;29;20495;-88
2023/10/06 06:28:14;;;;;;;7.00;3.60;;;12.70;99.90;;;;;;4940160;29;20950;-85
2023/10/06 06:30:40;;;;;;;9.90;3.72;;;12.70;99.90;;;;;;4940066;29;20178;-87
2023/10/06 06:33:12;;;;;;;10.05;3.25;;;12.80;99.90;;;;;;4939956;29;20204;-86
2023/10/06 06:35:42;;;;;;;8.75;3.65;;;12.80;99.90;;;;;;4940155;29;20193;-83
2023/10/06 06:38:12;;;;;;;8.02;3.67;;;12.80;99.90;;;;;;4939967;29;20185;-88
2023/10/06 06:40:38;;;;;;;9.95;3.20;;;12.80;99.90;;;;;;4940147;29;20185;-89
2023/10/06 06:43:09;;;;;;;10.55;3.42;;;12.90;99.90;;;;;;4939295;29;20496;-89
2023/10/06 06:45:39;;;;;;;10.30;3.38;;;12.90;99.90;;;;;;4940343;29;20196;-89
2023/10/06 06:48:13;;;;;;;10.85;4.22;;;12.90;99.90;;;;;;4940387;29;20177;-87
2023/10/06 06:50:47;;;;;;;6.85;3.50;;;12.90;99.90;;;;;;4940473;29;20180;-89
2023/10/06 06:53:13;;;;;;;10.40;3.58;;;12.90;99.90;;;;;;4940261;29;20213;-88
2023/10/06 06:55:39;;;;;;;8.40;3.65;;;12.90;99.90;;;;;;4940504;29;20608;-92
2023/10/06 06:58:06;;;;;;;10.13;3.75;;;13.00;99.90;;;;;;4940341;29;20189;-87
2023/10/06 07:00:35;;;;;;;7.25;2.97;;;13.00;99.90;;;;;;4940229;29;20169;-91
2023/10/06 07:03:01;;;;;;;9.60;3.40;;;13.00;99.90;;;;;;4957104;29;20224;-90
2023/10/06 07:05:26;;;;;;;8.68;3.88;;;13.10;99.90;;;;;;4924739;29;20233;-90
2023/10/06 07:07:52;;;;;;;14.48;4.93;;;13.10;99.90;;;;;;4920509;29;20189;-90
2023/10/06 07:10:22;;;;;;;13.75;3.58;;;13.10;99.90;;;;;;4920573;29;20336;-92
2023/10/06 07:12:50;;;;;;;9.23;3.33;;;13.20;99.90;;;;;;4937735;29;20197;-90
2023/10/06 07:15:18;;;;;;;13.57;3.83;;;13.30;99.90;;;;;;4921365;29;20198;-89
2023/10/06 07:17:48;;;;;;;7.88;3.50;;;13.30;99.90;;;;;;4921352;29;20254;-91
2023/10/06 07:20:16;;;;;;;9.77;3.70;;;13.40;99.90;;;;;;4921227;29;20190;-90
2023/10/06 07:22:54;;;;;;;12.70;3.30;;;13.40;99.90;;;;;;4921091;29;20229;-93
2023/10/06 07:25:23;;;;;;;9.32;3.63;;;13.50;99.90;;;;;;4920577;29;20178;-86
2023/10/06 07:27:55;;;;;;;11.10;3.85;;;13.50;99.90;;;;;;4920851;29;20181;-92
2023/10/06 07:30:25;;;;;;;9.85;4.00;;;13.50;99.90;;;;;;4921062;29;20181;-90
2023/10/06 07:32:52;;;;;;;8.73;3.47;;;13.50;99.90;;;;;;4921141;29;20261;-89
2023/10/06 07:35:20;;;;;;;9.93;3.38;;;13.50;99.90;;;;;;4921115;29;20178;-88
2023/10/06 07:38:03;;;;;;;11.52;3.50;;;13.60;99.90;;;;;;4920804;29;20192;-92
2023/10/06 07:40:28;;;;;;;8.73;3.70;;;13.70;99.90;;;;;;4921016;29;20177;-90
2023/10/06 07:42:58;;;;;;;11.07;3.83;;;13.70;99.90;;;;;;4921081;29;20178;-91
2023/10/06 07:45:26;;;;;;;10.88;3.58;;;13.80;99.90;;;;;;4921256;29;20193;-88
2023/10/06 07:47:54;;;;;;;13.88;3.55;;;13.80;99.90;;;;;;4921086;29;20182;-90
2023/10/06 07:50:20;;;;;;;17.00;3.58;;;13.80;99.90;;;;;;4921162;29;20219;-91
2023/10/06 07:52:47;;;;;;;7.47;3.17;;;13.90;99.90;;;;;;4920622;29;20213;-90
2023/10/06 07:55:13;;;;;;;10.00;3.05;;;14.00;99.90;;;;;;4939610;29;20178;-89
2023/10/06 07:57:41;;;;;;;8.98;3.28;;;14.00;99.90;;;;;;4924956;29;20232;-89
2023/10/06 08:00:18;;;;;;;7.30;3.10;;;14.10;99.90;;;;;;4924790;29;20182;-91
2023/10/06 08:02:47;;;;;;;7.38;3.17;;;14.10;99.90;;;;;;4924599;29;20617;-89
2023/10/06 08:05:17;;;;;;;8.63;2.80;;;14.20;99.90;;;;;;4924377;29;20266;-88
2023/10/06 08:07:43;;;;;;;11.27;3.40;;;14.20;99.90;;;;;;4924286;29;20221;-89
2023/10/06 08:10:13;;;;;;;7.20;3.22;;;14.30;99.90;;;;;;4924505;29;20170;-88
2023/10/06 08:12:41;;;;;;;7.20;3.00;;;14.30;99.90;;;;;;4924261;29;20213;-90
2023/10/06 08:15:09;;;;;;;10.57;3.42;;;14.40;99.90;;;;;;4924320;29;20185;-92
2023/10/06 08:17:38;;;;;;;7.53;2.92;;;14.40;99.90;;;;;;4924486;29;20523;-90
2023/10/06 08:20:05;;;;;;;15.63;3.63;;;14.40;99.90;;;;;;4924438;29;20184;-92
2023/10/06 08:22:33;;;;;;;10.50;3.05;;;14.50;99.90;;;;;;4924022;29;20174;-88
2023/10/06 08:25:05;;;;;;;8.68;2.67;;;14.50;99.90;;;;;;4924137;29;20264;-90
2023/10/06 08:27:35;;;;;;;12.32;3.22;;;14.60;99.90;;;;;;4924170;29;20545;-88
2023/10/06 08:30:16;;;;;;;9.73;2.67;;;14.70;99.90;;;;;;4924457;29;20181;-91
2023/10/06 08:32:52;;;;;;;11.93;3.38;;;14.80;99.90;;;;;;4924012;29;20229;-88
2023/10/06 08:35:19;;;;;;;7.90;2.70;;;14.90;99.90;;;;;;4924243;29;20174;-86
2023/10/06 08:37:49;;;;;;;6.20;2.60;;;15.00;99.90;;;;;;4923900;29;20209;-87
2023/10/06 08:40:16;;;;;;;10.57;3.00;;;15.00;99.90;;;;;;4924046;29;20193;-88
2023/10/06 08:42:51;;;;;;;5.82;2.42;;;15.00;99.90;;;;;;4923945;29;20188;-88
2023/10/06 08:45:25;;;;;;;12.15;3.10;;;15.00;99.90;;;;;;4923782;29;20522;-89
2023/10/06 08:47:59;;;;;;;7.72;2.72;;;15.10;99.90;;;;;;4923991;29;20178;-91
2023/10/06 08:50:30;;;;;;;9.95;2.90;;;15.10;99.90;;;;;;4923900;29;20176;-90
2023/10/06 08:52:58;;;;;;;9.70;2.92;;;15.10;99.90;;;;;;4923528;29;20277;-92
2023/10/06 08:55:25;;;;;;;6.80;2.72;;;15.10;99.90;;;;;;4923867;29;20182;-90
2023/10/06 08:57:52;;;;;;;9.40;2.78;;;15.20;99.90;;;;;;4923764;29;20182;-86
2023/10/06 09:00:31;;;;;;;8.10;2.92;;;15.20;99.90;;;;;;4923682;29;20629;-90
2023/10/06 09:03:07;;;;;;;11.90;3.63;;;15.30;99.90;;;;;;4923477;29;20527;-87
2023/10/06 09:05:39;;;;;;;8.65;3.03;;;15.40;99.90;;;;;;4923310;29;20279;-87
2023/10/06 09:08:14;;;;;;;9.60;3.20;;;15.40;99.90;;;;;;4922791;29;20233;-89
2023/10/06 09:10:55;;;;;;;6.45;2.58;;;15.40;99.90;;;;;;4923546;29;20177;-89
2023/10/06 09:13:22;;;;;;;7.40;3.13;;;15.40;99.90;;;;;;4923200;29;20252;-89
2023/10/06 09:15:57;;;;;;;11.43;3.47;;;15.40;99.90;;;;;;4923292;29;20189;-90
2023/10/06 09:18:28;;;;;;;7.20;2.80;;;15.50;99.90;;;;;;4923340;29;20208;-88
2023/10/06 09:21:08;;;;;;;6.85;2.67;;;15.50;99.90;;;;;;4923285;29;20174;-87
2023/10/06 09:23:36;;;;;;;8.27;2.80;;;15.60;99.90;;;;;;4923330;29;20182;-86
2023/10/06 09:26:04;;;;;;;12.52;2.88;;;15.60;99.90;;;;;;4923291;29;20181;-90
2023/10/06 09:28:47;;;;;;;6.28;2.97;;;15.60;99.90;;;;;;4923171;29;20186;-88
2023/10/06 09:31:13;;;;;;;10.25;3.00;;;15.60;99.90;;;;;;4923011;29;20174;-88
2023/10/06 09:33:38;;;;;;;8.23;2.60;;;15.50;99.90;;;;;;4922957;29;20220;-91
2023/10/06 09:36:11;;;;;;;6.70;2.92;;;15.60;99.90;;;;;;4923273;29;20272;-90
2023/10/06 09:38:39;;;;;;;9.55;2.75;;;15.60;99.90;;;;;;4923089;29;20167;-89
2023/10/06 09:41:07;;;;;;;6.63;2.58;;;15.60;99.90;;;;;;4922928;29;20209;-88
2023/10/06 09:43:38;;;;;;;9.27;2.50;;;15.60;99.90;;;;;;4922592;29;20178;-88
2023/10/06 09:46:06;;;;;;;5.70;2.30;;;15.70;99.90;;;;;;4922799;29;20614;-89
2023/10/06 09:48:36;;;;;;;10.30;2.75;;;15.70;99.90;;;;;;4922732;29;20182;-87
2023/10/06 09:51:06;;;;;;;6.63;2.60;;;15.70;99.90;;;;;;4922777;29;20193;-88
2023/10/06 09:53:37;;;;;;;7.38;3.10;;;15.70;99.90;;;;;;4922234;29;20316;-88
2023/10/06 09:56:06;;;;;;;6.22;3.28;;;15.80;99.90;;;;;;4922318;29;20174;-89
2023/10/06 09:58:51;;;;;;;5.28;2.90;;;15.90;99.90;;;;;;4922455;29;20209;-89
2023/10/06 10:01:20;;;;;;;5.78;2.47;;;16.00;99.90;;;;;;4922585;29;20237;-87
2023/10/06 10:03:47;;;;;;;7.25;3.03;;;16.00;99.90;;;;;;4923933;28;20249;-89
2023/10/06 10:06:16;;;;;;;8.55;2.92;;;16.10;99.90;;;;;;4941251;29;20260;-86
2023/10/06 10:08:42;;;;;;;5.38;2.58;;;16.10;99.90;;;;;;4940726;29;20177;-89
2023/10/06 10:11:20;;;;;;;9.27;3.15;;;16.10;99.90;;;;;;4941319;29;20177;-87
2023/10/06 10:14:31;;;;;;;6.55;2.50;;;16.10;99.90;;;;;;4941240;29;20209;-88
2023/10/06 10:17:23;;;;;;;8.13;3.08;;;16.30;99.90;;;;;;4941070;29;20185;-89
2023/10/06 10:19:51;;;;;;;6.97;2.83;;;16.50;99.90;;;;;;4958259;29;20304;-91
2023/10/06 10:22:18;;;;;;;5.70;2.45;;;16.50;99.90;;;;;;4940672;29;20170;-89
2023/10/06 10:24:44;;;;;;;8.52;2.60;;;16.40;99.90;;;;;;4958081;29;20174;-85
2023/10/06 10:27:18;;;;;;;5.10;2.17;;;16.30;99.90;;;;;;4940939;29;20218;-87
2023/10/06 10:29:47;;;;;;;9.95;2.53;;;16.20;99.90;;;;;;4940836;29;20628;-87
2023/10/06 10:32:16;;;;;;;9.70;2.50;;;16.30;99.90;;;;;;4941091;29;20174;-88
2023/10/06 10:35:16;;;;;;;6.97;2.53;;;16.30;99.90;;;;;;4957610;29;20540;-88
2023/10/06 10:37:59;;;;;;;7.30;2.70;;;16.30;99.90;;;;;;4940264;29;20188;-86
2023/10/06 10:40:44;;;;;;;6.20;2.30;;;16.40;99.90;;;;;;4940514;29;20612;-84
2023/10/06 10:43:14;;;;;;;7.22;2.47;;;16.50;99.90;;;;;;4956390;29;20617;-89
2023/10/06 10:45:44;;;;;;;9.80;2.60;;;16.50;99.90;;;;;;4940318;29;20197;-86
2023/10/06 10:48:14;;;;;;;5.75;2.28;;;16.60;99.90;;;;;;4940680;29;20169;-88
2023/10/06 10:51:12;;;;;;;5.72;2.30;;;16.80;99.90;;;;;;4940425;29;20181;-90
2023/10/06 10:53:44;;;;;;;7.72;2.38;;;16.80;99.90;;;;;;4957349;29;20228;-89
2023/10/06 10:56:13;;;;;;;5.70;2.30;;;16.90;99.90;;;;;;4940125;29;20188;-88
2023/10/06 10:58:42;;;;;;;8.10;1.98;;;16.90;99.90;;;;;;4940262;29;20189;-89
2023/10/06 11:01:32;;;;;;;4.38;2.20;;;16.90;99.90;;;;;;4940178;29;20597;-89
2023/10/06 11:06:44;;;;;;;6.18;2.05;;;16.90;99.90;;;;;;4957231;29;20179;-89
2023/10/06 11:09:30;;;;;;;8.57;2.20;;;16.90;99.90;;;;;;4957365;29;20173;-90
2023/10/06 11:11:56;;;;;;;6.65;2.20;;;17.00;99.90;;;;;;4956684;29;20208;-88
2023/10/06 11:14:29;;;;;;;6.93;2.17;;;17.10;99.90;;;;;;4940288;29;20248;-89
2023/10/06 11:17:03;;;;;;;6.38;1.58;;;17.10;99.90;;;;;;4939819;29;20184;-87
2023/10/06 11:19:33;;;;;;;6.68;2.45;;;17.20;99.90;;;;;;4956857;29;20196;-89
2023/10/06 11:22:19;;;;;;;6.47;2.25;;;17.20;99.90;;;;;;4956567;29;20158;-89
2023/10/06 11:24:46;;;;;;;4.32;2.08;;;17.30;99.90;;;;;;4940096;29;20228;-89
2023/10/06 11:27:22;;;;;;;7.57;1.98;;;17.30;99.90;;;;;;4940010;29;20188;-89
2023/10/06 11:30:11;;;;;;;17.10;2.03;;;17.30;99.90;;;;;;4939832;29;20180;-89
2023/10/06 11:32:37;;;;;;;9.00;1.90;;;17.30;99.90;;;;;;4956967;29;20548;-89
2023/10/06 11:35:04;;;;;;;5.57;2.10;;;17.30;99.90;;;;;;4939665;29;20320;-89
2023/10/06 11:37:30;;;;;;;6.18;2.00;;;17.30;99.90;;;;;;4956650;29;20173;-89
2023/10/06 11:39:57;;;;;;;8.00;2.05;;;17.30;99.90;;;;;;4939882;29;20192;-87
2023/10/06 11:42:29;;;;;;;4.13;1.95;;;17.30;99.90;;;;;;4939941;29;20201;-91
2023/10/06 11:44:57;;;;;;;4.75;2.00;;;17.30;99.90;;;;;;4939768;29;20815;-88
2023/10/06 11:47:26;;;;;;;7.90;1.92;;;17.30;99.90;;;;;;4939343;29;20185;-90
2023/10/06 11:49:59;;;;;;;7.25;1.90;;;17.20;99.90;;;;;;4939768;29;20271;-88
2023/10/06 11:52:26;;;;;;;6.00;2.20;;;17.20;99.90;;;;;;4939376;29;20277;-86
2023/10/06 11:54:52;;;;;;;5.38;1.88;;;17.20;99.90;;;;;;4955612;29;20185;-88
2023/10/06 11:57:22;;;;;;;7.18;2.35;;;17.30;99.90;;;;;;4939611;29;20187;-89
2023/10/06 11:59:57;;;;;;;7.50;1.98;;;17.40;99.90;;;;;;4939656;29;20631;-90
2023/10/06 12:02:24;;;;;;;6.90;2.10;;;17.40;99.90;;;;;;4939615;29;20180;-88
2023/10/06 12:04:49;;;;;;;5.05;1.70;;;17.40;99.90;;;;;;4939271;29;20265;-87
2023/10/06 12:07:24;;;;;;;9.38;2.35;;;17.40;99.90;;;;;;4939270;29;20213;-88
2023/10/06 12:10:03;;;;;;;4.97;2.20;;;17.30;99.90;;;;;;4939529;29;20177;-87
2023/10/06 12:12:29;;;;;;;4.82;2.08;;;17.20;99.90;;;;;;4939446;29;20193;-87
2023/10/06 12:14:56;;;;;;;6.40;2.00;;;17.10;99.90;;;;;;4939521;29;20577;-87
2023/10/06 12:17:23;;;;;;;5.60;2.28;;;17.10;99.90;;;;;;4939195;29;20232;-86
2023/10/06 12:19:57;;;;;;;8.43;1.85;;;17.10;99.90;;;;;;4956530;29;20188;-87
2023/10/06 12:22:23;;;;;;;6.78;1.83;;;17.10;99.90;;;;;;4939181;29;20224;-87
2023/10/06 12:24:49;;;;;;;7.18;1.52;;;17.20;99.90;;;;;;4939238;29;20611;-87
2023/10/06 12:27:17;;;;;;;7.07;2.10;;;17.20;99.90;;;;;;4939268;29;20240;-87
2023/10/06 12:29:44;;;;;;;5.28;1.77;;;17.30;99.90;;;;;;4939302;29;20321;-87
2023/10/06 12:32:10;;;;;;;4.88;1.85;;;17.40;99.90;;;;;;4939270;29;20177;-88
2023/10/06 12:34:36;;;;;;;4.03;2.00;;;17.40;99.90;;;;;;4939233;29;20255;-88
2023/10/06 12:37:03;;;;;;;4.60;1.88;;;17.50;99.90;;;;;;4956233;29;20248;-89
2023/10/06 12:39:34;;;;;;;7.95;1.88;;;17.60;99.90;;;;;;4939186;29;20191;-86
2023/10/06 12:42:01;;;;;;;5.25;2.05;;;17.80;99.90;;;;;;4940466;29;20169;-87
2023/10/06 12:44:27;;;;;;;6.93;2.10;;;17.80;99.90;;;;;;4942611;29;20193;-86
2023/10/06 12:47:03;;;;;;;5.88;1.95;;;17.90;99.90;;;;;;4958739;29;20187;-89
2023/10/06 12:49:31;;;;;;;5.32;1.98;;;17.80;99.90;;;;;;4942715;29;20173;-89
2023/10/06 12:51:57;;;;;;;7.70;2.10;;;17.90;99.90;;;;;;4942206;29;20224;-87
2023/10/06 12:54:26;;;;;;;5.57;1.95;;;17.90;99.90;;;;;;4942507;29;20556;-86
2023/10/06 12:56:54;;;;;;;4.45;2.15;;;18.00;99.90;;;;;;4942724;29;20178;-86
2023/10/06 12:59:20;;;;;;;3.58;1.65;;;18.00;99.90;;;;;;4942080;29;20276;-87
2023/10/06 13:01:49;;;;;;;3.65;1.58;;;18.00;99.90;;;;;;4941793;29;20205;-87
2023/10/06 13:04:15;;;;;;;5.57;1.90;;;18.10;99.90;;;;;;4958815;28;20217;-87
2023/10/06 13:06:41;;;;;;;3.65;1.58;;;18.20;99.90;;;;;;4942014;29;20185;-87
2023/10/06 13:09:08;;;;;;;4.72;1.98;;;18.20;99.90;;;;;;4941787;29;20269;-84
2023/10/06 13:11:35;;;;;;;8.43;1.83;;;18.30;99.90;;;;;;4959037;29;20699;-86
2023/10/06 13:14:04;;;;;;;5.35;2.03;;;18.30;99.90;;;;;;4941915;29;20222;-85